sensor_id;sensor_type;location;lat;lon;timestamp;P1;durP1;ratioP1;P2;durP2;ratioP2
15216;SDS011;7711;46.634;14.318;2024-02-26T00:01:58;24.97;;;13.70;;
15216;SDS011;7711;46.634;14.318;2024-02-26T00:04:25;23.83;;;14.50;;
15216;SDS011;7711;46.634;14.318;2024-02-26T00:06:52;25.40;;;14.03;;
15216;SDS011;7711;46.634;14.318;2024-02-26T00:09:20;23.20;;;13.93;;
15216;SDS011;7711;46.634;14.318;2024-02-26T00:11:47;24.13;;;14.83;;
15216;SDS011;7711;46.634;14.318;2024-02-26T00:14:14;24.33;;;14.07;;
15216;SDS011;7711;46.634;14.318;2024-02-26T00:16:41;24.20;;;13.73;;
15216;SDS011;7711;46.634;14.318;2024-02-26T00:19:11;23.13;;;13.10;;
15216;SDS011;7711;46.634;14.318;2024-02-26T00:21:40;21.57;;;12.63;;
15216;SDS011;7711;46.634;14.318;2024-02-26T00:24:08;21.30;;;13.53;;
15216;SDS011;7711;46.634;14.318;2024-02-26T00:26:35;21.37;;;12.80;;
15216;SDS011;7711;46.634;14.318;2024-02-26T00:29:02;25.53;;;13.23;;
15216;SDS011;7711;46.634;14.318;2024-02-26T00:31:29;19.03;;;12.63;;
15216;SDS011;7711;46.634;14.318;2024-02-26T00:33:56;22.47;;;13.23;;
15216;SDS011;7711;46.634;14.318;2024-02-26T00:36:25;23.43;;;13.50;;
15216;SDS011;7711;46.634;14.318;2024-02-26T00:38:52;23.23;;;13.93;;
15216;SDS011;7711;46.634;14.318;2024-02-26T00:41:19;22.10;;;12.93;;
15216;SDS011;7711;46.634;14.318;2024-02-26T00:43:46;22.07;;;12.43;;
15216;SDS011;7711;46.634;14.318;2024-02-26T00:46:13;21.07;;;12.90;;
15216;SDS011;7711;46.634;14.318;2024-02-26T00:48:40;21.97;;;13.13;;
15216;SDS011;7711;46.634;14.318;2024-02-26T00:51:08;25.33;;;14.10;;
15216;SDS011;7711;46.634;14.318;2024-02-26T00:53:36;26.57;;;13.70;;
15216;SDS011;7711;46.634;14.318;2024-02-26T00:56:03;23.83;;;13.17;;
15216;SDS011;7711;46.634;14.318;2024-02-26T00:58:31;21.33;;;12.83;;
15216;SDS011;7711;46.634;14.318;2024-02-26T01:00:58;22.53;;;13.43;;
15216;SDS011;7711;46.634;14.318;2024-02-26T01:03:25;21.67;;;12.60;;
15216;SDS011;7711;46.634;14.318;2024-02-26T01:05:52;23.87;;;12.13;;
15216;SDS011;7711;46.634;14.318;2024-02-26T01:08:19;23.90;;;13.17;;
15216;SDS011;7711;46.634;14.318;2024-02-26T01:10:48;21.40;;;12.30;;
15216;SDS011;7711;46.634;14.318;2024-02-26T01:13:15;17.90;;;11.40;;
15216;SDS011;7711;46.634;14.318;2024-02-26T01:15:43;20.60;;;11.90;;
15216;SDS011;7711;46.634;14.318;2024-02-26T01:18:10;17.70;;;11.30;;
15216;SDS011;7711;46.634;14.318;2024-02-26T01:20:38;22.40;;;11.87;;
15216;SDS011;7711;46.634;14.318;2024-02-26T01:23:05;16.80;;;11.07;;
15216;SDS011;7711;46.634;14.318;2024-02-26T01:25:32;17.70;;;10.87;;
15216;SDS011;7711;46.634;14.318;2024-02-26T01:28:01;16.80;;;10.27;;
15216;SDS011;7711;46.634;14.318;2024-02-26T01:30:28;15.20;;;10.20;;
15216;SDS011;7711;46.634;14.318;2024-02-26T01:32:55;15.70;;;9.57;;
15216;SDS011;7711;46.634;14.318;2024-02-26T01:35:22;14.03;;;9.73;;
15216;SDS011;7711;46.634;14.318;2024-02-26T01:37:49;13.93;;;9.53;;
15216;SDS011;7711;46.634;14.318;2024-02-26T01:40:16;13.97;;;8.93;;
15216;SDS011;7711;46.634;14.318;2024-02-26T01:42:45;14.93;;;10.30;;
15216;SDS011;7711;46.634;14.318;2024-02-26T01:45:14;13.87;;;9.43;;
15216;SDS011;7711;46.634;14.318;2024-02-26T01:47:47;12.50;;;8.43;;
15216;SDS011;7711;46.634;14.318;2024-02-26T01:50:16;11.83;;;7.70;;
15216;SDS011;7711;46.634;14.318;2024-02-26T01:52:43;13.07;;;8.50;;
15216;SDS011;7711;46.634;14.318;2024-02-26T01:55:11;12.00;;;8.47;;
15216;SDS011;7711;46.634;14.318;2024-02-26T01:57:40;10.93;;;8.40;;
15216;SDS011;7711;46.634;14.318;2024-02-26T02:00:09;13.63;;;9.20;;
15216;SDS011;7711;46.634;14.318;2024-02-26T02:02:38;9.53;;;8.03;;
15216;SDS011;7711;46.634;14.318;2024-02-26T02:05:07;12.53;;;8.47;;
15216;SDS011;7711;46.634;14.318;2024-02-26T02:07:35;12.20;;;8.30;;
15216;SDS011;7711;46.634;14.318;2024-02-26T02:10:03;12.43;;;7.80;;
15216;SDS011;7711;46.634;14.318;2024-02-26T02:12:31;11.53;;;8.47;;
15216;SDS011;7711;46.634;14.318;2024-02-26T02:14:59;11.13;;;8.70;;
15216;SDS011;7711;46.634;14.318;2024-02-26T02:17:27;11.50;;;8.17;;
15216;SDS011;7711;46.634;14.318;2024-02-26T02:19:56;12.83;;;8.50;;
15216;SDS011;7711;46.634;14.318;2024-02-26T02:22:24;11.27;;;8.17;;
15216;SDS011;7711;46.634;14.318;2024-02-26T02:24:52;14.90;;;8.97;;
15216;SDS011;7711;46.634;14.318;2024-02-26T02:27:19;12.13;;;8.63;;
15216;SDS011;7711;46.634;14.318;2024-02-26T02:29:47;14.27;;;9.30;;
15216;SDS011;7711;46.634;14.318;2024-02-26T02:32:16;11.73;;;7.90;;
15216;SDS011;7711;46.634;14.318;2024-02-26T02:34:45;11.60;;;8.30;;
15216;SDS011;7711;46.634;14.318;2024-02-26T02:37:12;11.90;;;8.23;;
15216;SDS011;7711;46.634;14.318;2024-02-26T02:39:41;12.23;;;8.47;;
15216;SDS011;7711;46.634;14.318;2024-02-26T02:42:08;10.40;;;7.87;;
15216;SDS011;7711;46.634;14.318;2024-02-26T02:44:35;11.67;;;7.87;;
15216;SDS011;7711;46.634;14.318;2024-02-26T02:47:03;10.67;;;7.97;;
15216;SDS011;7711;46.634;14.318;2024-02-26T02:49:30;12.57;;;8.33;;
15216;SDS011;7711;46.634;14.318;2024-02-26T02:51:57;11.83;;;8.33;;
15216;SDS011;7711;46.634;14.318;2024-02-26T02:54:24;11.43;;;7.47;;
15216;SDS011;7711;46.634;14.318;2024-02-26T02:56:52;11.33;;;8.10;;
15216;SDS011;7711;46.634;14.318;2024-02-26T02:59:20;11.50;;;8.43;;
15216;SDS011;7711;46.634;14.318;2024-02-26T03:01:47;11.87;;;8.53;;
15216;SDS011;7711;46.634;14.318;2024-02-26T03:04:14;13.20;;;8.30;;
15216;SDS011;7711;46.634;14.318;2024-02-26T03:06:41;13.33;;;8.90;;
15216;SDS011;7711;46.634;14.318;2024-02-26T03:09:08;12.13;;;8.97;;
15216;SDS011;7711;46.634;14.318;2024-02-26T03:11:35;15.83;;;9.10;;
15216;SDS011;7711;46.634;14.318;2024-02-26T03:14:05;14.10;;;9.37;;
15216;SDS011;7711;46.634;14.318;2024-02-26T03:16:33;12.40;;;8.80;;
15216;SDS011;7711;46.634;14.318;2024-02-26T03:19:00;13.87;;;9.00;;
15216;SDS011;7711;46.634;14.318;2024-02-26T03:21:28;14.57;;;9.53;;
15216;SDS011;7711;46.634;14.318;2024-02-26T03:23:55;15.33;;;9.50;;
15216;SDS011;7711;46.634;14.318;2024-02-26T03:26:22;13.67;;;9.50;;
15216;SDS011;7711;46.634;14.318;2024-02-26T03:28:49;13.80;;;9.27;;
15216;SDS011;7711;46.634;14.318;2024-02-26T03:31:18;13.73;;;9.47;;
15216;SDS011;7711;46.634;14.318;2024-02-26T03:33:46;14.87;;;8.80;;
15216;SDS011;7711;46.634;14.318;2024-02-26T03:36:13;13.77;;;9.53;;
15216;SDS011;7711;46.634;14.318;2024-02-26T03:38:42;12.57;;;8.87;;
15216;SDS011;7711;46.634;14.318;2024-02-26T03:41:09;13.90;;;9.23;;
15216;SDS011;7711;46.634;14.318;2024-02-26T03:43:36;13.53;;;9.27;;
15216;SDS011;7711;46.634;14.318;2024-02-26T03:46:07;13.40;;;9.53;;
15216;SDS011;7711;46.634;14.318;2024-02-26T03:48:38;15.37;;;9.97;;
15216;SDS011;7711;46.634;14.318;2024-02-26T03:51:05;15.57;;;10.40;;
15216;SDS011;7711;46.634;14.318;2024-02-26T03:53:32;13.10;;;8.87;;
15216;SDS011;7711;46.634;14.318;2024-02-26T03:56:02;14.43;;;9.40;;
15216;SDS011;7711;46.634;14.318;2024-02-26T03:58:30;13.27;;;8.83;;
15216;SDS011;7711;46.634;14.318;2024-02-26T04:00:57;13.77;;;9.23;;
15216;SDS011;7711;46.634;14.318;2024-02-26T04:03:25;13.03;;;9.03;;
15216;SDS011;7711;46.634;14.318;2024-02-26T04:05:55;14.37;;;9.07;;
15216;SDS011;7711;46.634;14.318;2024-02-26T04:08:22;13.97;;;9.17;;
15216;SDS011;7711;46.634;14.318;2024-02-26T04:10:49;12.50;;;8.80;;
15216;SDS011;7711;46.634;14.318;2024-02-26T04:13:16;11.30;;;8.40;;
15216;SDS011;7711;46.634;14.318;2024-02-26T04:15:44;15.23;;;8.83;;
15216;SDS011;7711;46.634;14.318;2024-02-26T04:18:11;11.60;;;8.13;;
15216;SDS011;7711;46.634;14.318;2024-02-26T04:20:39;15.60;;;8.83;;
15216;SDS011;7711;46.634;14.318;2024-02-26T04:23:08;11.07;;;8.10;;
15216;SDS011;7711;46.634;14.318;2024-02-26T04:25:35;11.30;;;8.53;;
15216;SDS011;7711;46.634;14.318;2024-02-26T04:28:03;12.13;;;9.03;;
15216;SDS011;7711;46.634;14.318;2024-02-26T04:30:30;11.87;;;8.63;;
15216;SDS011;7711;46.634;14.318;2024-02-26T04:32:57;12.03;;;8.60;;
15216;SDS011;7711;46.634;14.318;2024-02-26T04:35:25;15.10;;;8.57;;
15216;SDS011;7711;46.634;14.318;2024-02-26T04:37:52;16.80;;;10.60;;
15216;SDS011;7711;46.634;14.318;2024-02-26T04:40:20;13.23;;;9.60;;
15216;SDS011;7711;46.634;14.318;2024-02-26T04:42:47;15.20;;;10.37;;
15216;SDS011;7711;46.634;14.318;2024-02-26T04:45:14;32.97;;;15.00;;
15216;SDS011;7711;46.634;14.318;2024-02-26T04:47:42;50.30;;;24.63;;
15216;SDS011;7711;46.634;14.318;2024-02-26T04:50:09;50.30;;;26.47;;
15216;SDS011;7711;46.634;14.318;2024-02-26T04:52:36;24.97;;;14.57;;
15216;SDS011;7711;46.634;14.318;2024-02-26T04:55:03;13.53;;;9.40;;
15216;SDS011;7711;46.634;14.318;2024-02-26T04:57:32;12.70;;;8.93;;
15216;SDS011;7711;46.634;14.318;2024-02-26T04:59:59;12.93;;;9.07;;
15216;SDS011;7711;46.634;14.318;2024-02-26T05:02:26;13.73;;;8.80;;
15216;SDS011;7711;46.634;14.318;2024-02-26T05:04:55;11.63;;;8.67;;
15216;SDS011;7711;46.634;14.318;2024-02-26T05:07:22;11.40;;;8.40;;
15216;SDS011;7711;46.634;14.318;2024-02-26T05:09:49;11.03;;;7.90;;
15216;SDS011;7711;46.634;14.318;2024-02-26T05:12:17;11.70;;;8.50;;
15216;SDS011;7711;46.634;14.318;2024-02-26T05:14:45;10.83;;;8.63;;
15216;SDS011;7711;46.634;14.318;2024-02-26T05:17:12;15.03;;;8.63;;
15216;SDS011;7711;46.634;14.318;2024-02-26T05:19:40;12.97;;;8.80;;
15216;SDS011;7711;46.634;14.318;2024-02-26T05:22:07;10.30;;;7.57;;
15216;SDS011;7711;46.634;14.318;2024-02-26T05:24:34;10.33;;;7.00;;
15216;SDS011;7711;46.634;14.318;2024-02-26T05:27:04;10.90;;;7.90;;
15216;SDS011;7711;46.634;14.318;2024-02-26T05:29:31;10.70;;;7.80;;
15216;SDS011;7711;46.634;14.318;2024-02-26T05:31:59;10.50;;;7.90;;
15216;SDS011;7711;46.634;14.318;2024-02-26T05:34:26;11.07;;;7.63;;
15216;SDS011;7711;46.634;14.318;2024-02-26T05:36:57;11.63;;;7.50;;
15216;SDS011;7711;46.634;14.318;2024-02-26T05:39:24;10.20;;;7.47;;
15216;SDS011;7711;46.634;14.318;2024-02-26T05:41:51;10.30;;;7.77;;
15216;SDS011;7711;46.634;14.318;2024-02-26T05:44:18;11.20;;;7.93;;
15216;SDS011;7711;46.634;14.318;2024-02-26T05:46:46;12.77;;;7.87;;
15216;SDS011;7711;46.634;14.318;2024-02-26T05:49:15;9.47;;;7.30;;
15216;SDS011;7711;46.634;14.318;2024-02-26T05:51:42;15.03;;;8.53;;
15216;SDS011;7711;46.634;14.318;2024-02-26T05:54:09;11.67;;;8.03;;
15216;SDS011;7711;46.634;14.318;2024-02-26T05:56:36;12.03;;;8.20;;
15216;SDS011;7711;46.634;14.318;2024-02-26T05:59:05;13.67;;;7.73;;
15216;SDS011;7711;46.634;14.318;2024-02-26T06:01:32;11.53;;;7.80;;
15216;SDS011;7711;46.634;14.318;2024-02-26T06:03:59;11.93;;;8.20;;
15216;SDS011;7711;46.634;14.318;2024-02-26T06:06:27;12.37;;;7.60;;
15216;SDS011;7711;46.634;14.318;2024-02-26T06:08:55;10.67;;;7.47;;
15216;SDS011;7711;46.634;14.318;2024-02-26T06:11:22;10.40;;;7.87;;
15216;SDS011;7711;46.634;14.318;2024-02-26T06:13:49;12.97;;;7.77;;
15216;SDS011;7711;46.634;14.318;2024-02-26T06:16:16;11.17;;;8.07;;
15216;SDS011;7711;46.634;14.318;2024-02-26T06:18:43;10.73;;;7.70;;
15216;SDS011;7711;46.634;14.318;2024-02-26T06:21:10;11.10;;;7.97;;
15216;SDS011;7711;46.634;14.318;2024-02-26T06:23:39;14.83;;;9.53;;
15216;SDS011;7711;46.634;14.318;2024-02-26T06:26:06;13.07;;;8.00;;
15216;SDS011;7711;46.634;14.318;2024-02-26T06:28:33;13.13;;;7.97;;
15216;SDS011;7711;46.634;14.318;2024-02-26T06:31:01;13.10;;;7.97;;
15216;SDS011;7711;46.634;14.318;2024-02-26T06:33:28;10.07;;;7.67;;
15216;SDS011;7711;46.634;14.318;2024-02-26T06:35:55;11.10;;;7.93;;
15216;SDS011;7711;46.634;14.318;2024-02-26T06:38:22;11.10;;;7.30;;
15216;SDS011;7711;46.634;14.318;2024-02-26T06:40:51;9.73;;;7.50;;
15216;SDS011;7711;46.634;14.318;2024-02-26T06:43:18;9.63;;;7.20;;
15216;SDS011;7711;46.634;14.318;2024-02-26T06:45:45;8.27;;;6.87;;
15216;SDS011;7711;46.634;14.318;2024-02-26T06:48:12;10.43;;;7.57;;
15216;SDS011;7711;46.634;14.318;2024-02-26T06:50:39;9.47;;;7.20;;
15216;SDS011;7711;46.634;14.318;2024-02-26T06:53:06;9.73;;;7.23;;
15216;SDS011;7711;46.634;14.318;2024-02-26T06:55:34;9.50;;;7.17;;
15216;SDS011;7711;46.634;14.318;2024-02-26T06:58:04;10.67;;;7.47;;
15216;SDS011;7711;46.634;14.318;2024-02-26T07:00:31;10.73;;;7.17;;
15216;SDS011;7711;46.634;14.318;2024-02-26T07:02:58;9.83;;;7.07;;
15216;SDS011;7711;46.634;14.318;2024-02-26T07:05:25;8.73;;;7.27;;
15216;SDS011;7711;46.634;14.318;2024-02-26T07:07:52;10.20;;;6.97;;
15216;SDS011;7711;46.634;14.318;2024-02-26T07:10:19;9.27;;;6.97;;
15216;SDS011;7711;46.634;14.318;2024-02-26T07:12:46;10.43;;;7.27;;
15216;SDS011;7711;46.634;14.318;2024-02-26T07:15:15;10.53;;;7.27;;
15216;SDS011;7711;46.634;14.318;2024-02-26T07:17:42;10.60;;;7.37;;
15216;SDS011;7711;46.634;14.318;2024-02-26T07:20:12;9.57;;;7.67;;
15216;SDS011;7711;46.634;14.318;2024-02-26T07:22:39;8.97;;;7.20;;
15216;SDS011;7711;46.634;14.318;2024-02-26T07:25:08;8.63;;;7.03;;
15216;SDS011;7711;46.634;14.318;2024-02-26T07:27:38;9.00;;;7.13;;
15216;SDS011;7711;46.634;14.318;2024-02-26T07:30:05;9.93;;;8.17;;
15216;SDS011;7711;46.634;14.318;2024-02-26T07:32:35;10.17;;;7.87;;
15216;SDS011;7711;46.634;14.318;2024-02-26T07:35:03;9.57;;;7.47;;
15216;SDS011;7711;46.634;14.318;2024-02-26T07:37:30;9.97;;;7.47;;
15216;SDS011;7711;46.634;14.318;2024-02-26T07:39:57;10.13;;;7.53;;
15216;SDS011;7711;46.634;14.318;2024-02-26T07:42:24;8.43;;;6.77;;
15216;SDS011;7711;46.634;14.318;2024-02-26T07:44:52;9.00;;;7.40;;
15216;SDS011;7711;46.634;14.318;2024-02-26T07:47:19;6.90;;;6.20;;
15216;SDS011;7711;46.634;14.318;2024-02-26T07:49:48;8.97;;;6.60;;
15216;SDS011;7711;46.634;14.318;2024-02-26T07:52:17;8.47;;;6.90;;
15216;SDS011;7711;46.634;14.318;2024-02-26T07:54:44;7.73;;;6.83;;
15216;SDS011;7711;46.634;14.318;2024-02-26T07:57:11;11.13;;;6.93;;
15216;SDS011;7711;46.634;14.318;2024-02-26T07:59:41;8.97;;;6.67;;
15216;SDS011;7711;46.634;14.318;2024-02-26T08:02:10;8.10;;;6.73;;
15216;SDS011;7711;46.634;14.318;2024-02-26T08:04:37;7.90;;;6.60;;
15216;SDS011;7711;46.634;14.318;2024-02-26T08:07:05;9.30;;;6.83;;
15216;SDS011;7711;46.634;14.318;2024-02-26T08:09:33;8.63;;;7.13;;
15216;SDS011;7711;46.634;14.318;2024-02-26T08:12:00;10.67;;;7.10;;
15216;SDS011;7711;46.634;14.318;2024-02-26T08:14:27;9.07;;;6.50;;
15216;SDS011;7711;46.634;14.318;2024-02-26T08:16:54;9.50;;;6.50;;
15216;SDS011;7711;46.634;14.318;2024-02-26T08:19:21;9.40;;;6.30;;
15216;SDS011;7711;46.634;14.318;2024-02-26T08:21:48;7.17;;;6.20;;
15216;SDS011;7711;46.634;14.318;2024-02-26T08:24:16;8.83;;;6.77;;
15216;SDS011;7711;46.634;14.318;2024-02-26T08:26:44;9.53;;;6.90;;
15216;SDS011;7711;46.634;14.318;2024-02-26T08:29:11;8.33;;;6.57;;
15216;SDS011;7711;46.634;14.318;2024-02-26T08:31:38;9.73;;;6.60;;
15216;SDS011;7711;46.634;14.318;2024-02-26T08:34:06;9.83;;;7.37;;
15216;SDS011;7711;46.634;14.318;2024-02-26T08:36:34;11.63;;;7.33;;
15216;SDS011;7711;46.634;14.318;2024-02-26T08:39:01;11.07;;;7.70;;
15216;SDS011;7711;46.634;14.318;2024-02-26T08:41:30;10.03;;;7.00;;
15216;SDS011;7711;46.634;14.318;2024-02-26T08:43:57;8.77;;;7.47;;
15216;SDS011;7711;46.634;14.318;2024-02-26T08:46:24;10.63;;;7.37;;
15216;SDS011;7711;46.634;14.318;2024-02-26T08:48:51;11.10;;;7.47;;
15216;SDS011;7711;46.634;14.318;2024-02-26T08:51:18;10.87;;;6.87;;
15216;SDS011;7711;46.634;14.318;2024-02-26T08:53:45;8.17;;;6.33;;
15216;SDS011;7711;46.634;14.318;2024-02-26T08:56:12;9.40;;;6.40;;
15216;SDS011;7711;46.634;14.318;2024-02-26T08:58:43;7.23;;;5.97;;
15216;SDS011;7711;46.634;14.318;2024-02-26T09:01:11;6.10;;;5.50;;
15216;SDS011;7711;46.634;14.318;2024-02-26T09:03:38;10.67;;;6.70;;
15216;SDS011;7711;46.634;14.318;2024-02-26T09:06:06;9.50;;;6.63;;
15216;SDS011;7711;46.634;14.318;2024-02-26T09:08:33;15.17;;;13.10;;
15216;SDS011;7711;46.634;14.318;2024-02-26T09:11:01;10.50;;;9.07;;
15216;SDS011;7711;46.634;14.318;2024-02-26T09:13:29;9.50;;;8.40;;
15216;SDS011;7711;46.634;14.318;2024-02-26T09:15:58;11.20;;;7.33;;
15216;SDS011;7711;46.634;14.318;2024-02-26T09:18:25;32.87;;;22.80;;
15216;SDS011;7711;46.634;14.318;2024-02-26T09:20:54;80.23;;;57.27;;
15216;SDS011;7711;46.634;14.318;2024-02-26T09:23:21;12.50;;;8.70;;
15216;SDS011;7711;46.634;14.318;2024-02-26T09:25:48;8.30;;;7.10;;
15216;SDS011;7711;46.634;14.318;2024-02-26T09:28:15;7.53;;;6.03;;
15216;SDS011;7711;46.634;14.318;2024-02-26T09:30:42;6.30;;;5.37;;
15216;SDS011;7711;46.634;14.318;2024-02-26T09:33:11;6.83;;;6.03;;
15216;SDS011;7711;46.634;14.318;2024-02-26T09:35:39;8.97;;;5.93;;
15216;SDS011;7711;46.634;14.318;2024-02-26T09:38:06;10.43;;;6.23;;
15216;SDS011;7711;46.634;14.318;2024-02-26T09:40:33;7.10;;;5.67;;
15216;SDS011;7711;46.634;14.318;2024-02-26T09:43:02;7.97;;;5.73;;
15216;SDS011;7711;46.634;14.318;2024-02-26T09:45:32;6.60;;;5.90;;
15216;SDS011;7711;46.634;14.318;2024-02-26T09:48:01;7.20;;;6.00;;
15216;SDS011;7711;46.634;14.318;2024-02-26T09:50:32;8.70;;;5.57;;
15216;SDS011;7711;46.634;14.318;2024-02-26T09:52:59;8.27;;;6.47;;
15216;SDS011;7711;46.634;14.318;2024-02-26T09:55:27;7.10;;;6.20;;
15216;SDS011;7711;46.634;14.318;2024-02-26T09:57:54;10.17;;;6.73;;
15216;SDS011;7711;46.634;14.318;2024-02-26T10:00:24;9.87;;;7.20;;
15216;SDS011;7711;46.634;14.318;2024-02-26T10:02:53;11.67;;;6.40;;
15216;SDS011;7711;46.634;14.318;2024-02-26T10:05:23;6.73;;;6.10;;
15216;SDS011;7711;46.634;14.318;2024-02-26T10:07:53;6.77;;;5.70;;
15216;SDS011;7711;46.634;14.318;2024-02-26T10:10:21;6.93;;;6.00;;
15216;SDS011;7711;46.634;14.318;2024-02-26T10:12:49;8.33;;;5.80;;
15216;SDS011;7711;46.634;14.318;2024-02-26T10:15:19;5.83;;;5.23;;
15216;SDS011;7711;46.634;14.318;2024-02-26T10:17:46;7.80;;;5.40;;
15216;SDS011;7711;46.634;14.318;2024-02-26T10:20:14;7.60;;;5.03;;
15216;SDS011;7711;46.634;14.318;2024-02-26T10:22:43;8.10;;;5.60;;
15216;SDS011;7711;46.634;14.318;2024-02-26T10:25:11;5.67;;;5.13;;
15216;SDS011;7711;46.634;14.318;2024-02-26T10:27:40;9.03;;;5.13;;
15216;SDS011;7711;46.634;14.318;2024-02-26T10:30:17;6.27;;;5.57;;
15216;SDS011;7711;46.634;14.318;2024-02-26T10:32:46;7.50;;;5.37;;
15216;SDS011;7711;46.634;14.318;2024-02-26T10:35:13;6.47;;;5.50;;
15216;SDS011;7711;46.634;14.318;2024-02-26T10:37:40;6.03;;;4.80;;
15216;SDS011;7711;46.634;14.318;2024-02-26T10:40:09;8.70;;;5.80;;
15216;SDS011;7711;46.634;14.318;2024-02-26T10:42:38;6.57;;;5.37;;
15216;SDS011;7711;46.634;14.318;2024-02-26T10:45:06;8.60;;;5.40;;
15216;SDS011;7711;46.634;14.318;2024-02-26T10:47:34;7.70;;;5.83;;
15216;SDS011;7711;46.634;14.318;2024-02-26T10:50:01;6.77;;;5.63;;
15216;SDS011;7711;46.634;14.318;2024-02-26T10:52:30;6.73;;;5.53;;
15216;SDS011;7711;46.634;14.318;2024-02-26T10:54:59;5.73;;;5.13;;
15216;SDS011;7711;46.634;14.318;2024-02-26T10:57:31;8.27;;;5.47;;
15216;SDS011;7711;46.634;14.318;2024-02-26T11:00:00;6.53;;;5.40;;
15216;SDS011;7711;46.634;14.318;2024-02-26T11:02:29;8.43;;;5.90;;
15216;SDS011;7711;46.634;14.318;2024-02-26T11:04:59;7.83;;;6.03;;
15216;SDS011;7711;46.634;14.318;2024-02-26T11:07:28;6.50;;;5.57;;
15216;SDS011;7711;46.634;14.318;2024-02-26T11:09:57;6.87;;;5.70;;
15216;SDS011;7711;46.634;14.318;2024-02-26T11:12:26;7.07;;;5.00;;
15216;SDS011;7711;46.634;14.318;2024-02-26T11:14:56;9.27;;;5.43;;
15216;SDS011;7711;46.634;14.318;2024-02-26T11:17:25;7.03;;;5.63;;
15216;SDS011;7711;46.634;14.318;2024-02-26T11:19:55;8.57;;;5.83;;
15216;SDS011;7711;46.634;14.318;2024-02-26T11:22:24;7.17;;;5.70;;
15216;SDS011;7711;46.634;14.318;2024-02-26T11:24:51;7.27;;;5.63;;
15216;SDS011;7711;46.634;14.318;2024-02-26T11:27:23;7.40;;;5.70;;
15216;SDS011;7711;46.634;14.318;2024-02-26T11:29:58;7.43;;;4.90;;
15216;SDS011;7711;46.634;14.318;2024-02-26T11:32:26;7.23;;;5.60;;
15216;SDS011;7711;46.634;14.318;2024-02-26T11:34:55;6.07;;;5.47;;
15216;SDS011;7711;46.634;14.318;2024-02-26T11:37:22;7.17;;;5.37;;
15216;SDS011;7711;46.634;14.318;2024-02-26T11:39:51;5.80;;;5.20;;
15216;SDS011;7711;46.634;14.318;2024-02-26T11:42:22;8.03;;;6.07;;
15216;SDS011;7711;46.634;14.318;2024-02-26T11:44:51;7.20;;;5.30;;
15216;SDS011;7711;46.634;14.318;2024-02-26T11:47:19;5.53;;;4.83;;
15216;SDS011;7711;46.634;14.318;2024-02-26T11:49:47;6.90;;;4.90;;
15216;SDS011;7711;46.634;14.318;2024-02-26T11:52:14;7.63;;;5.60;;
15216;SDS011;7711;46.634;14.318;2024-02-26T11:54:45;6.27;;;5.43;;
15216;SDS011;7711;46.634;14.318;2024-02-26T11:57:28;8.03;;;5.37;;
15216;SDS011;7711;46.634;14.318;2024-02-26T12:00:10;6.50;;;5.33;;
15216;SDS011;7711;46.634;14.318;2024-02-26T12:02:39;6.47;;;4.93;;
15216;SDS011;7711;46.634;14.318;2024-02-26T12:05:09;5.83;;;5.23;;
15216;SDS011;7711;46.634;14.318;2024-02-26T12:07:39;6.30;;;4.97;;
15216;SDS011;7711;46.634;14.318;2024-02-26T12:10:24;5.60;;;5.00;;
15216;SDS011;7711;46.634;14.318;2024-02-26T12:12:54;8.27;;;5.10;;
15216;SDS011;7711;46.634;14.318;2024-02-26T12:15:26;6.20;;;5.13;;
15216;SDS011;7711;46.634;14.318;2024-02-26T12:17:59;7.00;;;5.70;;
15216;SDS011;7711;46.634;14.318;2024-02-26T12:20:28;7.77;;;5.87;;
15216;SDS011;7711;46.634;14.318;2024-02-26T12:22:55;5.87;;;5.27;;
15216;SDS011;7711;46.634;14.318;2024-02-26T12:25:24;7.37;;;5.40;;
15216;SDS011;7711;46.634;14.318;2024-02-26T12:27:52;6.65;;;5.57;;
15216;SDS011;7711;46.634;14.318;2024-02-26T12:30:19;6.53;;;5.65;;
15216;SDS011;7711;46.634;14.318;2024-02-26T12:32:47;5.50;;;4.90;;
15216;SDS011;7711;46.634;14.318;2024-02-26T12:35:16;6.90;;;5.55;;
15216;SDS011;7711;46.634;14.318;2024-02-26T12:37:43;7.70;;;5.50;;
15216;SDS011;7711;46.634;14.318;2024-02-26T12:40:11;5.87;;;5.27;;
15216;SDS011;7711;46.634;14.318;2024-02-26T12:42:38;7.45;;;5.40;;
15216;SDS011;7711;46.634;14.318;2024-02-26T12:45:06;7.40;;;4.80;;
15216;SDS011;7711;46.634;14.318;2024-02-26T12:47:35;6.18;;;4.72;;
15216;SDS011;7711;46.634;14.318;2024-02-26T12:50:03;5.80;;;4.13;;
15216;SDS011;7711;46.634;14.318;2024-02-26T12:52:32;6.03;;;4.70;;
15216;SDS011;7711;46.634;14.318;2024-02-26T12:55:01;6.90;;;4.53;;
15216;SDS011;7711;46.634;14.318;2024-02-26T12:57:29;5.10;;;4.57;;
15216;SDS011;7711;46.634;14.318;2024-02-26T12:59:56;5.40;;;4.47;;
15216;SDS011;7711;46.634;14.318;2024-02-26T13:02:24;5.60;;;4.88;;
15216;SDS011;7711;46.634;14.318;2024-02-26T13:04:52;5.10;;;4.53;;
15216;SDS011;7711;46.634;14.318;2024-02-26T13:07:20;9.15;;;4.95;;
15216;SDS011;7711;46.634;14.318;2024-02-26T13:09:48;7.20;;;4.82;;
15216;SDS011;7711;46.634;14.318;2024-02-26T13:12:15;5.43;;;4.80;;
15216;SDS011;7711;46.634;14.318;2024-02-26T13:14:43;5.30;;;4.30;;
15216;SDS011;7711;46.634;14.318;2024-02-26T13:17:09;5.28;;;4.40;;
15216;SDS011;7711;46.634;14.318;2024-02-26T13:19:37;6.00;;;4.57;;
15216;SDS011;7711;46.634;14.318;2024-02-26T13:22:04;6.60;;;4.40;;
15216;SDS011;7711;46.634;14.318;2024-02-26T13:24:32;5.80;;;4.82;;
15216;SDS011;7711;46.634;14.318;2024-02-26T13:27:01;4.90;;;4.50;;
15216;SDS011;7711;46.634;14.318;2024-02-26T13:29:28;5.30;;;4.80;;
15216;SDS011;7711;46.634;14.318;2024-02-26T13:31:55;5.90;;;4.73;;
15216;SDS011;7711;46.634;14.318;2024-02-26T13:34:24;5.63;;;4.70;;
15216;SDS011;7711;46.634;14.318;2024-02-26T13:36:51;5.40;;;4.60;;
15216;SDS011;7711;46.634;14.318;2024-02-26T13:39:22;6.80;;;4.67;;
15216;SDS011;7711;46.634;14.318;2024-02-26T13:41:50;4.53;;;4.13;;
15216;SDS011;7711;46.634;14.318;2024-02-26T13:44:18;7.60;;;4.20;;
15216;SDS011;7711;46.634;14.318;2024-02-26T13:46:46;6.23;;;4.00;;
15216;SDS011;7711;46.634;14.318;2024-02-26T13:49:13;6.33;;;4.03;;
15216;SDS011;7711;46.634;14.318;2024-02-26T13:51:40;4.57;;;4.10;;
15216;SDS011;7711;46.634;14.318;2024-02-26T13:54:07;4.63;;;4.00;;
15216;SDS011;7711;46.634;14.318;2024-02-26T13:56:34;4.78;;;3.70;;
15216;SDS011;7711;46.634;14.318;2024-02-26T13:59:01;4.65;;;3.70;;
15216;SDS011;7711;46.634;14.318;2024-02-26T14:01:30;4.35;;;3.95;;
15216;SDS011;7711;46.634;14.318;2024-02-26T14:03:58;4.10;;;3.70;;
15216;SDS011;7711;46.634;14.318;2024-02-26T14:06:27;7.72;;;4.20;;
15216;SDS011;7711;46.634;14.318;2024-02-26T14:08:55;5.37;;;4.13;;
15216;SDS011;7711;46.634;14.318;2024-02-26T14:11:22;5.57;;;4.30;;
15216;SDS011;7711;46.634;14.318;2024-02-26T14:13:50;5.15;;;4.65;;
15216;SDS011;7711;46.634;14.318;2024-02-26T14:16:17;7.47;;;5.13;;
15216;SDS011;7711;46.634;14.318;2024-02-26T14:18:46;7.20;;;4.88;;
15216;SDS011;7711;46.634;14.318;2024-02-26T14:21:13;7.18;;;4.45;;
15216;SDS011;7711;46.634;14.318;2024-02-26T14:23:40;5.27;;;4.37;;
15216;SDS011;7711;46.634;14.318;2024-02-26T14:26:09;6.18;;;4.40;;
15216;SDS011;7711;46.634;14.318;2024-02-26T14:28:36;5.97;;;4.53;;
15216;SDS011;7711;46.634;14.318;2024-02-26T14:31:05;6.03;;;4.33;;
15216;SDS011;7711;46.634;14.318;2024-02-26T14:33:36;5.55;;;4.30;;
15216;SDS011;7711;46.634;14.318;2024-02-26T14:36:05;6.40;;;4.63;;
15216;SDS011;7711;46.634;14.318;2024-02-26T14:38:32;6.00;;;4.82;;
15216;SDS011;7711;46.634;14.318;2024-02-26T14:40:59;5.50;;;4.97;;
15216;SDS011;7711;46.634;14.318;2024-02-26T14:43:27;7.13;;;4.97;;